sensor_id;sensor_type;location;lat;lon;timestamp;temperature;humidity
34833;DHT22;55941;50.800;4.342;2022-12-17T00:01:47;-2.10;99.90
34833;DHT22;55941;50.800;4.342;2022-12-17T00:04:33;-2.20;99.90
34833;DHT22;55941;50.800;4.342;2022-12-17T00:07:20;-2.10;99.90
34833;DHT22;55941;50.800;4.342;2022-12-17T00:10:05;-2.20;99.90
34833;DHT22;55941;50.800;4.342;2022-12-17T00:12:49;-2.00;99.90
34833;DHT22;55941;50.800;4.342;2022-12-17T00:15:35;-2.00;99.90
34833;DHT22;55941;50.800;4.342;2022-12-17T00:18:19;-2.00;99.90
34833;DHT22;55941;50.800;4.342;2022-12-17T00:21:05;-2.10;99.90
34833;DHT22;55941;50.800;4.342;2022-12-17T00:23:50;-2.30;99.90
34833;DHT22;55941;50.800;4.342;2022-12-17T00:26:35;-2.30;99.90
34833;DHT22;55941;50.800;4.342;2022-12-17T00:29:20;-2.30;99.90
34833;DHT22;55941;50.800;4.342;2022-12-17T00:32:04;-2.40;99.90
34833;DHT22;55941;50.800;4.342;2022-12-17T00:34:48;-2.40;99.90
34833;DHT22;55941;50.800;4.342;2022-12-17T00:37:34;-2.40;99.90
34833;DHT22;55941;50.800;4.342;2022-12-17T00:40:18;-2.30;99.90
34833;DHT22;55941;50.800;4.342;2022-12-17T00:43:09;-2.30;99.90
34833;DHT22;55941;50.800;4.342;2022-12-17T00:45:54;-2.30;99.90
34833;DHT22;55941;50.800;4.342;2022-12-17T00:48:40;-2.30;99.90
34833;DHT22;55941;50.800;4.342;2022-12-17T00:51:25;-2.40;99.90
34833;DHT22;55941;50.800;4.342;2022-12-17T00:54:10;-2.30;99.90
34833;DHT22;55941;50.800;4.342;2022-12-17T00:56:55;-2.30;99.90
34833;DHT22;55941;50.800;4.342;2022-12-17T00:59:40;-2.30;99.90
34833;DHT22;55941;50.800;4.342;2022-12-17T01:02:26;-2.30;99.90
34833;DHT22;55941;50.800;4.342;2022-12-17T01:05:12;-2.20;99.90
34833;DHT22;55941;50.800;4.342;2022-12-17T01:07:56;-2.40;99.90
34833;DHT22;55941;50.800;4.342;2022-12-17T01:11:01;-2.40;99.90
34833;DHT22;55941;50.800;4.342;2022-12-17T01:13:46;-2.40;99.90
34833;DHT22;55941;50.800;4.342;2022-12-17T01:16:32;-2.40;99.90
34833;DHT22;55941;50.800;4.342;2022-12-17T01:19:16;-2.30;99.90
34833;DHT22;55941;50.800;4.342;2022-12-17T01:22:00;-2.40;99.90
34833;DHT22;55941;50.800;4.342;2022-12-17T01:24:47;-2.50;99.90
34833;DHT22;55941;50.800;4.342;2022-12-17T01:27:31;-2.50;99.90
34833;DHT22;55941;50.800;4.342;2022-12-17T01:30:16;-2.60;99.90
34833;DHT22;55941;50.800;4.342;2022-12-17T01:33:04;-2.50;99.90
34833;DHT22;55941;50.800;4.342;2022-12-17T01:35:53;-2.40;99.90
34833;DHT22;55941;50.800;4.342;2022-12-17T01:38:38;-2.40;99.90
34833;DHT22;55941;50.800;4.342;2022-12-17T01:41:22;-2.50;99.90
34833;DHT22;55941;50.800;4.342;2022-12-17T01:47:27;-2.60;99.90
34833;DHT22;55941;50.800;4.342;2022-12-17T01:50:13;-2.50;99.90
34833;DHT22;55941;50.800;4.342;2022-12-17T01:53:01;-2.60;99.90
34833;DHT22;55941;50.800;4.342;2022-12-17T01:55:46;-2.60;99.90
34833;DHT22;55941;50.800;4.342;2022-12-17T01:58:46;-2.40;99.90
34833;DHT22;55941;50.800;4.342;2022-12-17T02:01:30;-2.30;99.90
34833;DHT22;55941;50.800;4.342;2022-12-17T02:04:15;-2.30;99.90
34833;DHT22;55941;50.800;4.342;2022-12-17T02:10:25;-2.20;99.90
34833;DHT22;55941;50.800;4.342;2022-12-17T02:13:19;-1.90;99.90
34833;DHT22;55941;50.800;4.342;2022-12-17T02:16:28;-1.90;99.90
34833;DHT22;55941;50.800;4.342;2022-12-17T02:22:32;-2.80;99.90
34833;DHT22;55941;50.800;4.342;2022-12-17T02:25:55;-3.00;99.90
34833;DHT22;55941;50.800;4.342;2022-12-17T02:28:43;-3.20;99.90
34833;DHT22;55941;50.800;4.342;2022-12-17T02:31:30;-3.20;99.90
34833;DHT22;55941;50.800;4.342;2022-12-17T02:34:15;-3.30;99.90
34833;DHT22;55941;50.800;4.342;2022-12-17T02:37:00;-3.20;99.90
34833;DHT22;55941;50.800;4.342;2022-12-17T02:39:44;-3.20;99.90
34833;DHT22;55941;50.800;4.342;2022-12-17T02:42:30;-3.30;99.90
34833;DHT22;55941;50.800;4.342;2022-12-17T02:45:15;-3.30;99.90
34833;DHT22;55941;50.800;4.342;2022-12-17T02:48:16;-3.30;99.90
34833;DHT22;55941;50.800;4.342;2022-12-17T02:51:01;-3.30;99.90
34833;DHT22;55941;50.800;4.342;2022-12-17T02:53:50;-3.30;99.90
34833;DHT22;55941;50.800;4.342;2022-12-17T02:56:36;-3.40;99.90
34833;DHT22;55941;50.800;4.342;2022-12-17T02:59:21;-3.40;99.90
34833;DHT22;55941;50.800;4.342;2022-12-17T03:02:05;-3.50;99.90
34833;DHT22;55941;50.800;4.342;2022-12-17T03:04:49;-3.40;99.90
34833;DHT22;55941;50.800;4.342;2022-12-17T03:07:34;-3.60;99.90
34833;DHT22;55941;50.800;4.342;2022-12-17T03:10:18;-3.50;99.90
34833;DHT22;55941;50.800;4.342;2022-12-17T03:13:03;-3.50;99.90
34833;DHT22;55941;50.800;4.342;2022-12-17T03:15:47;-3.60;99.90
34833;DHT22;55941;50.800;4.342;2022-12-17T03:18:31;-3.70;99.90
34833;DHT22;55941;50.800;4.342;2022-12-17T03:21:15;-3.70;99.90
34833;DHT22;55941;50.800;4.342;2022-12-17T03:23:59;-3.70;99.90
34833;DHT22;55941;50.800;4.342;2022-12-17T03:26:43;-3.70;99.90
34833;DHT22;55941;50.800;4.342;2022-12-17T03:29:27;-3.70;99.90
34833;DHT22;55941;50.800;4.342;2022-12-17T03:32:11;-3.70;99.90
34833;DHT22;55941;50.800;4.342;2022-12-17T03:34:56;-3.70;99.90
34833;DHT22;55941;50.800;4.342;2022-12-17T03:37:40;-3.70;99.90
34833;DHT22;55941;50.800;4.342;2022-12-17T03:40:25;-3.60;99.90
34833;DHT22;55941;50.800;4.342;2022-12-17T03:43:10;-3.50;99.90
34833;DHT22;55941;50.800;4.342;2022-12-17T03:45:55;-3.40;99.90
34833;DHT22;55941;50.800;4.342;2022-12-17T03:48:39;-3.50;99.90
34833;DHT22;55941;50.800;4.342;2022-12-17T03:51:23;-3.50;99.90
34833;DHT22;55941;50.800;4.342;2022-12-17T03:54:07;-3.40;99.90
34833;DHT22;55941;50.800;4.342;2022-12-17T03:56:51;-3.50;99.90
34833;DHT22;55941;50.800;4.342;2022-12-17T03:59:35;-3.50;99.90
34833;DHT22;55941;50.800;4.342;2022-12-17T04:02:21;-3.40;99.90
34833;DHT22;55941;50.800;4.342;2022-12-17T04:05:05;-3.60;99.90
34833;DHT22;55941;50.800;4.342;2022-12-17T04:07:50;-3.70;99.90
34833;DHT22;55941;50.800;4.342;2022-12-17T04:10:36;-3.70;99.90
34833;DHT22;55941;50.800;4.342;2022-12-17T04:13:20;-3.70;99.90
34833;DHT22;55941;50.800;4.342;2022-12-17T04:16:06;-3.60;99.90
34833;DHT22;55941;50.800;4.342;2022-12-17T04:18:50;-3.70;99.90
34833;DHT22;55941;50.800;4.342;2022-12-17T04:21:34;-3.70;99.90
34833;DHT22;55941;50.800;4.342;2022-12-17T04:24:18;-3.80;99.90
34833;DHT22;55941;50.800;4.342;2022-12-17T04:27:03;-3.80;99.90
34833;DHT22;55941;50.800;4.342;2022-12-17T04:29:47;-3.80;99.90
34833;DHT22;55941;50.800;4.342;2022-12-17T04:32:31;-3.70;99.90
34833;DHT22;55941;50.800;4.342;2022-12-17T04:35:15;-3.80;99.90
34833;DHT22;55941;50.800;4.342;2022-12-17T04:37:59;-3.80;99.90
34833;DHT22;55941;50.800;4.342;2022-12-17T04:40:44;-3.90;99.90
34833;DHT22;55941;50.800;4.342;2022-12-17T04:43:28;-3.70;99.90
34833;DHT22;55941;50.800;4.342;2022-12-17T04:46:12;-3.80;99.90
34833;DHT22;55941;50.800;4.342;2022-12-17T04:48:57;-3.80;99.90
34833;DHT22;55941;50.800;4.342;2022-12-17T04:51:41;-3.80;99.90
34833;DHT22;55941;50.800;4.342;2022-12-17T04:54:25;-3.80;99.90
34833;DHT22;55941;50.800;4.342;2022-12-17T04:57:10;-3.70;99.90
34833;DHT22;55941;50.800;4.342;2022-12-17T04:59:54;-3.70;99.90
34833;DHT22;55941;50.800;4.342;2022-12-17T05:02:49;-3.70;99.90
34833;DHT22;55941;50.800;4.342;2022-12-17T05:05:33;-3.70;99.90
34833;DHT22;55941;50.800;4.342;2022-12-17T05:08:18;-3.70;99.90
34833;DHT22;55941;50.800;4.342;2022-12-17T05:11:03;-3.60;99.90
34833;DHT22;55941;50.800;4.342;2022-12-17T05:13:48;-3.70;99.90
34833;DHT22;55941;50.800;4.342;2022-12-17T05:16:32;-3.70;99.90
34833;DHT22;55941;50.800;4.342;2022-12-17T05:19:16;-3.70;99.90
34833;DHT22;55941;50.800;4.342;2022-12-17T05:22:01;-3.50;99.90
34833;DHT22;55941;50.800;4.342;2022-12-17T05:24:45;-3.40;99.90
34833;DHT22;55941;50.800;4.342;2022-12-17T05:27:29;-3.50;99.90
34833;DHT22;55941;50.800;4.342;2022-12-17T05:30:13;-3.50;99.90
34833;DHT22;55941;50.800;4.342;2022-12-17T05:33:01;-3.50;99.90
34833;DHT22;55941;50.800;4.342;2022-12-17T05:35:46;-3.70;99.90
34833;DHT22;55941;50.800;4.342;2022-12-17T05:38:30;-3.70;99.90
34833;DHT22;55941;50.800;4.342;2022-12-17T05:41:14;-3.50;99.90
34833;DHT22;55941;50.800;4.342;2022-12-17T05:43:58;-3.50;99.90
34833;DHT22;55941;50.800;4.342;2022-12-17T05:46:44;-3.50;99.90
34833;DHT22;55941;50.800;4.342;2022-12-17T05:49:27;-3.50;99.90
34833;DHT22;55941;50.800;4.342;2022-12-17T05:52:12;-3.40;99.90
34833;DHT22;55941;50.800;4.342;2022-12-17T05:55:04;-3.40;99.90
34833;DHT22;55941;50.800;4.342;2022-12-17T05:57:48;-3.50;99.90
34833;DHT22;55941;50.800;4.342;2022-12-17T06:00:33;-3.60;99.90
34833;DHT22;55941;50.800;4.342;2022-12-17T06:03:17;-3.50;99.90
34833;DHT22;55941;50.800;4.342;2022-12-17T06:06:03;-3.60;99.90
34833;DHT22;55941;50.800;4.342;2022-12-17T06:08:50;-3.70;99.90
34833;DHT22;55941;50.800;4.342;2022-12-17T06:11:36;-3.60;99.90
34833;DHT22;55941;50.800;4.342;2022-12-17T06:14:20;-3.60;99.90
34833;DHT22;55941;50.800;4.342;2022-12-17T06:17:07;-3.70;99.90
34833;DHT22;55941;50.800;4.342;2022-12-17T06:19:53;-3.70;99.90
34833;DHT22;55941;50.800;4.342;2022-12-17T06:22:37;-3.80;99.90
34833;DHT22;55941;50.800;4.342;2022-12-17T06:25:22;-3.80;99.90
34833;DHT22;55941;50.800;4.342;2022-12-17T06:28:06;-3.80;99.90
34833;DHT22;55941;50.800;4.342;2022-12-17T06:30:51;-3.70;99.90
34833;DHT22;55941;50.800;4.342;2022-12-17T06:33:36;-3.80;99.90
34833;DHT22;55941;50.800;4.342;2022-12-17T06:36:22;-3.80;99.90
34833;DHT22;55941;50.800;4.342;2022-12-17T06:39:06;-3.80;99.90
34833;DHT22;55941;50.800;4.342;2022-12-17T06:41:53;-3.80;99.90
34833;DHT22;55941;50.800;4.342;2022-12-17T06:44:38;-3.80;99.90
34833;DHT22;55941;50.800;4.342;2022-12-17T06:47:23;-3.60;99.90
34833;DHT22;55941;50.800;4.342;2022-12-17T06:50:10;-3.20;99.90
34833;DHT22;55941;50.800;4.342;2022-12-17T06:53:02;-3.00;99.90
34833;DHT22;55941;50.800;4.342;2022-12-17T06:55:47;-3.40;99.90
34833;DHT22;55941;50.800;4.342;2022-12-17T06:58:31;-3.60;99.90
34833;DHT22;55941;50.800;4.342;2022-12-17T07:01:15;-3.70;99.90
34833;DHT22;55941;50.800;4.342;2022-12-17T07:03:59;-3.70;99.90
34833;DHT22;55941;50.800;4.342;2022-12-17T07:06:43;-3.60;99.90
34833;DHT22;55941;50.800;4.342;2022-12-17T07:09:28;-3.70;99.90
34833;DHT22;55941;50.800;4.342;2022-12-17T07:12:12;-3.70;99.90
34833;DHT22;55941;50.800;4.342;2022-12-17T07:14:56;-3.60;99.90
34833;DHT22;55941;50.800;4.342;2022-12-17T07:17:41;-3.70;99.90
34833;DHT22;55941;50.800;4.342;2022-12-17T07:20:27;-3.70;99.90
34833;DHT22;55941;50.800;4.342;2022-12-17T07:23:11;-3.70;99.90
34833;DHT22;55941;50.800;4.342;2022-12-17T07:25:56;-3.90;99.90
34833;DHT22;55941;50.800;4.342;2022-12-17T07:28:40;-3.90;99.90
34833;DHT22;55941;50.800;4.342;2022-12-17T07:31:25;-3.90;99.90
34833;DHT22;55941;50.800;4.342;2022-12-17T07:34:20;-4.00;99.90
34833;DHT22;55941;50.800;4.342;2022-12-17T07:37:04;-3.90;99.90
34833;DHT22;55941;50.800;4.342;2022-12-17T07:39:49;-3.80;99.90
34833;DHT22;55941;50.800;4.342;2022-12-17T07:42:33;-3.90;99.90
34833;DHT22;55941;50.800;4.342;2022-12-17T07:45:17;-3.80;99.90
34833;DHT22;55941;50.800;4.342;2022-12-17T07:48:02;-3.70;99.90
34833;DHT22;55941;50.800;4.342;2022-12-17T07:50:50;-3.70;99.90
34833;DHT22;55941;50.800;4.342;2022-12-17T07:53:34;-3.70;99.90
34833;DHT22;55941;50.800;4.342;2022-12-17T07:56:19;-3.80;99.90
34833;DHT22;55941;50.800;4.342;2022-12-17T07:59:03;-3.70;99.90
34833;DHT22;55941;50.800;4.342;2022-12-17T08:01:48;-3.70;99.90
34833;DHT22;55941;50.800;4.342;2022-12-17T08:04:33;-3.70;99.90
34833;DHT22;55941;50.800;4.342;2022-12-17T08:07:17;-3.60;99.90
34833;DHT22;55941;50.800;4.342;2022-12-17T08:10:02;-3.60;99.90
34833;DHT22;55941;50.800;4.342;2022-12-17T08:12:58;-3.60;99.90
34833;DHT22;55941;50.800;4.342;2022-12-17T08:15:48;-3.60;99.90
34833;DHT22;55941;50.800;4.342;2022-12-17T08:18:32;-3.60;99.90
34833;DHT22;55941;50.800;4.342;2022-12-17T08:21:17;-3.60;99.90
34833;DHT22;55941;50.800;4.342;2022-12-17T08:24:06;-3.30;99.90
34833;DHT22;55941;50.800;4.342;2022-12-17T08:26:51;-3.30;99.90
34833;DHT22;55941;50.800;4.342;2022-12-17T08:29:35;-3.00;99.90
34833;DHT22;55941;50.800;4.342;2022-12-17T08:32:19;-3.00;99.90
34833;DHT22;55941;50.800;4.342;2022-12-17T08:35:04;-3.10;99.90
34833;DHT22;55941;50.800;4.342;2022-12-17T08:37:49;-2.90;99.90
34833;DHT22;55941;50.800;4.342;2022-12-17T08:40:33;-3.00;99.90
34833;DHT22;55941;50.800;4.342;2022-12-17T08:43:17;-3.00;99.90
34833;DHT22;55941;50.800;4.342;2022-12-17T08:46:02;-3.10;99.90
34833;DHT22;55941;50.800;4.342;2022-12-17T08:48:46;-3.10;99.90
34833;DHT22;55941;50.800;4.342;2022-12-17T08:51:30;-3.10;99.90
34833;DHT22;55941;50.800;4.342;2022-12-17T08:54:14;-2.90;99.90
34833;DHT22;55941;50.800;4.342;2022-12-17T08:56:59;-2.90;99.90
34833;DHT22;55941;50.800;4.342;2022-12-17T08:59:43;-2.90;99.90
34833;DHT22;55941;50.800;4.342;2022-12-17T09:02:29;-3.00;99.90
34833;DHT22;55941;50.800;4.342;2022-12-17T09:05:13;-2.90;99.90
34833;DHT22;55941;50.800;4.342;2022-12-17T09:08:02;-2.70;99.90
34833;DHT22;55941;50.800;4.342;2022-12-17T09:10:48;-2.70;99.90
34833;DHT22;55941;50.800;4.342;2022-12-17T09:13:33;-2.70;99.90
34833;DHT22;55941;50.800;4.342;2022-12-17T09:16:18;-2.70;99.90
34833;DHT22;55941;50.800;4.342;2022-12-17T09:19:03;-2.50;99.90
34833;DHT22;55941;50.800;4.342;2022-12-17T09:21:47;-2.60;99.90
34833;DHT22;55941;50.800;4.342;2022-12-17T09:24:31;-2.50;99.90
34833;DHT22;55941;50.800;4.342;2022-12-17T09:27:15;-2.50;99.90
34833;DHT22;55941;50.800;4.342;2022-12-17T09:29:59;-2.40;99.90
34833;DHT22;55941;50.800;4.342;2022-12-17T09:32:43;-2.30;99.90
34833;DHT22;55941;50.800;4.342;2022-12-17T09:35:28;-2.30;99.90
34833;DHT22;55941;50.800;4.342;2022-12-17T09:38:13;-2.30;99.90
34833;DHT22;55941;50.800;4.342;2022-12-17T09:41:04;-2.30;99.90
34833;DHT22;55941;50.800;4.342;2022-12-17T09:43:51;-2.30;99.90
34833;DHT22;55941;50.800;4.342;2022-12-17T09:50:08;-2.00;99.90
34833;DHT22;55941;50.800;4.342;2022-12-17T09:52:55;-1.90;99.90
34833;DHT22;55941;50.800;4.342;2022-12-17T09:55:45;-1.90;99.90
34833;DHT22;55941;50.800;4.342;2022-12-17T09:58:37;-1.70;99.90
34833;DHT22;55941;50.800;4.342;2022-12-17T10:01:24;-1.70;99.90
34833;DHT22;55941;50.800;4.342;2022-12-17T10:04:15;-1.40;99.90
34833;DHT22;55941;50.800;4.342;2022-12-17T10:07:01;-1.20;99.90
34833;DHT22;55941;50.800;4.342;2022-12-17T10:09:50;-0.90;99.90
34833;DHT22;55941;50.800;4.342;2022-12-17T10:12:35;-1.10;99.90
34833;DHT22;55941;50.800;4.342;2022-12-17T10:15:19;-1.00;99.90
34833;DHT22;55941;50.800;4.342;2022-12-17T10:18:09;-1.10;99.90
34833;DHT22;55941;50.800;4.342;2022-12-17T10:21:01;-1.00;99.90
34833;DHT22;55941;50.800;4.342;2022-12-17T10:23:47;-1.00;99.90
34833;DHT22;55941;50.800;4.342;2022-12-17T10:26:34;-1.00;99.90
34833;DHT22;55941;50.800;4.342;2022-12-17T10:29:24;-1.10;99.90
34833;DHT22;55941;50.800;4.342;2022-12-17T10:35:06;-0.70;99.90
34833;DHT22;55941;50.800;4.342;2022-12-17T10:37:51;-0.50;99.90
34833;DHT22;55941;50.800;4.342;2022-12-17T10:40:36;-0.50;99.90
34833;DHT22;55941;50.800;4.342;2022-12-17T10:43:32;-0.50;99.90
34833;DHT22;55941;50.800;4.342;2022-12-17T10:46:28;-0.50;99.90
34833;DHT22;55941;50.800;4.342;2022-12-17T10:49:19;-0.30;99.90
34833;DHT22;55941;50.800;4.342;2022-12-17T10:52:23;-0.40;99.90
34833;DHT22;55941;50.800;4.342;2022-12-17T10:55:21;-0.20;99.90
34833;DHT22;55941;50.800;4.342;2022-12-17T10:58:13;0.10;99.90
34833;DHT22;55941;50.800;4.342;2022-12-17T11:00:59;0.30;99.90
34833;DHT22;55941;50.800;4.342;2022-12-17T11:03:52;0.40;99.90
34833;DHT22;55941;50.800;4.342;2022-12-17T11:06:50;0.70;99.90
34833;DHT22;55941;50.800;4.342;2022-12-17T11:09:48;1.00;99.90
34833;DHT22;55941;50.800;4.342;2022-12-17T11:12:51;1.40;99.90
34833;DHT22;55941;50.800;4.342;2022-12-17T11:15:51;1.90;99.90
34833;DHT22;55941;50.800;4.342;2022-12-17T11:19:13;2.30;99.90
34833;DHT22;55941;50.800;4.342;2022-12-17T11:22:04;2.20;99.90
34833;DHT22;55941;50.800;4.342;2022-12-17T11:27:50;1.80;99.90
34833;DHT22;55941;50.800;4.342;2022-12-17T11:30:48;1.60;99.90
34833;DHT22;55941;50.800;4.342;2022-12-17T11:40:44;2.00;99.90
34833;DHT22;55941;50.800;4.342;2022-12-17T11:43:43;2.10;99.90
34833;DHT22;55941;50.800;4.342;2022-12-17T11:53:17;1.80;99.90
34833;DHT22;55941;50.800;4.342;2022-12-17T12:02:27;1.60;99.90
34833;DHT22;55941;50.800;4.342;2022-12-17T12:05:32;1.40;99.90
34833;DHT22;55941;50.800;4.342;2022-12-17T12:08:23;1.50;99.90
34833;DHT22;55941;50.800;4.342;2022-12-17T12:11:34;1.50;99.90
34833;DHT22;55941;50.800;4.342;2022-12-17T12:17:42;1.50;99.90
34833;DHT22;55941;50.800;4.342;2022-12-17T12:20:58;1.50;99.90
34833;DHT22;55941;50.800;4.342;2022-12-17T12:30:17;1.40;99.90
34833;DHT22;55941;50.800;4.342;2022-12-17T12:36:11;1.70;99.90
34833;DHT22;55941;50.800;4.342;2022-12-17T12:38:58;1.80;99.90
34833;DHT22;55941;50.800;4.342;2022-12-17T12:42:11;1.80;99.90
34833;DHT22;55941;50.800;4.342;2022-12-17T12:45:03;1.90;99.90
34833;DHT22;55941;50.800;4.342;2022-12-17T12:48:20;2.00;99.90
34833;DHT22;55941;50.800;4.342;2022-12-17T12:51:13;1.90;99.90
34833;DHT22;55941;50.800;4.342;2022-12-17T12:54:01;2.00;99.90
34833;DHT22;55941;50.800;4.342;2022-12-17T12:57:03;2.10;99.90
34833;DHT22;55941;50.800;4.342;2022-12-17T12:59:48;2.30;99.90
34833;DHT22;55941;50.800;4.342;2022-12-17T13:02:32;2.40;99.90
34833;DHT22;55941;50.800;4.342;2022-12-17T13:05:38;2.30;99.90
34833;DHT22;55941;50.800;4.342;2022-12-17T13:10:34;2.30;99.90
34833;DHT22;55941;50.800;4.342;2022-12-17T13:15:50;2.30;99.90
34833;DHT22;55941;50.800;4.342;2022-12-17T13:18:32;2.30;99.90
34833;DHT22;55941;50.800;4.342;2022-12-17T13:21:04;2.40;99.90
34833;DHT22;55941;50.800;4.342;2022-12-17T13:23:40;2.30;99.90
34833;DHT22;55941;50.800;4.342;2022-12-17T13:26:18;2.30;99.90
34833;DHT22;55941;50.800;4.342;2022-12-17T13:37:05;2.40;99.90
34833;DHT22;55941;50.800;4.342;2022-12-17T13:42:29;2.40;99.90
34833;DHT22;55941;50.800;4.342;2022-12-17T13:44:57;2.30;99.90
34833;DHT22;55941;50.800;4.342;2022-12-17T13:47:29;2.20;99.90
34833;DHT22;55941;50.800;4.342;2022-12-17T13:49:57;2.10;99.90
34833;DHT22;55941;50.800;4.342;2022-12-17T13:52:27;1.90;99.90
34833;DHT22;55941;50.800;4.342;2022-12-17T13:55:04;2.00;99.90
34833;DHT22;55941;50.800;4.342;2022-12-17T13:57:30;1.90;99.90
34833;DHT22;55941;50.800;4.342;2022-12-17T13:59:58;1.90;99.90
34833;DHT22;55941;50.800;4.342;2022-12-17T14:02:32;2.00;99.90
34833;DHT22;55941;50.800;4.342;2022-12-17T14:05:05;1.90;99.90
34833;DHT22;55941;50.800;4.342;2022-12-17T14:07:34;1.90;99.90
34833;DHT22;55941;50.800;4.342;2022-12-17T14:10:03;2.00;99.90
34833;DHT22;55941;50.800;4.342;2022-12-17T14:12:30;1.80;99.90
34833;DHT22;55941;50.800;4.342;2022-12-17T14:15:10;1.90;99.90
34833;DHT22;55941;50.800;4.342;2022-12-17T14:17:44;1.90;99.90
34833;DHT22;55941;50.800;4.342;2022-12-17T14:20:22;1.80;99.90
34833;DHT22;55941;50.800;4.342;2022-12-17T14:23:03;1.80;99.90
34833;DHT22;55941;50.800;4.342;2022-12-17T14:25:37;1.90;99.90
34833;DHT22;55941;50.800;4.342;2022-12-17T14:28:19;1.90;99.90
34833;DHT22;55941;50.800;4.342;2022-12-17T14:30:45;2.00;99.90
34833;DHT22;55941;50.800;4.342;2022-12-17T14:33:41;2.00;99.90
34833;DHT22;55941;50.800;4.342;2022-12-17T14:36:16;1.90;99.90
34833;DHT22;55941;50.800;4.342;2022-12-17T14:38:54;1.90;99.90
34833;DHT22;55941;50.800;4.342;2022-12-17T14:41:20;1.80;99.90
34833;DHT22;55941;50.800;4.342;2022-12-17T14:44:06;1.70;99.90
34833;DHT22;55941;50.800;4.342;2022-12-17T14:46:33;1.70;99.90
34833;DHT22;55941;50.800;4.342;2022-12-17T14:49:01;1.70;99.90
34833;DHT22;55941;50.800;4.342;2022-12-17T14:51:34;1.60;99.90
34833;DHT22;55941;50.800;4.342;2022-12-17T14:54:17;1.60;99.90
34833;DHT22;55941;50.800;4.342;2022-12-17T14:56:45;1.60;99.90
34833;DHT22;55941;50.800;4.342;2022-12-17T15:01:51;1.50;99.90
34833;DHT22;55941;50.800;4.342;2022-12-17T15:04:18;1.40;99.90
34833;DHT22;55941;50.800;4.342;2022-12-17T15:06:44;1.50;99.90
34833;DHT22;55941;50.800;4.342;2022-12-17T15:09:11;1.40;99.90
34833;DHT22;55941;50.800;4.342;2022-12-17T15:11:38;1.30;99.90
34833;DHT22;55941;50.800;4.342;2022-12-17T15:14:04;1.40;99.90
34833;DHT22;55941;50.800;4.342;2022-12-17T15:16:30;1.30;99.90
34833;DHT22;55941;50.800;4.342;2022-12-17T15:18:56;1.10;99.90
34833;DHT22;55941;50.800;4.342;2022-12-17T15:21:24;1.20;99.90
34833;DHT22;55941;50.800;4.342;2022-12-17T15:23:50;1.00;99.90
34833;DHT22;55941;50.800;4.342;2022-12-17T15:26:16;1.00;99.90
34833;DHT22;55941;50.800;4.342;2022-12-17T15:28:42;1.10;99.90
34833;DHT22;55941;50.800;4.342;2022-12-17T15:31:10;1.00;99.90
34833;DHT22;55941;50.800;4.342;2022-12-17T15:33:37;0.80;99.90
34833;DHT22;55941;50.800;4.342;2022-12-17T15:36:03;0.90;99.90
34833;DHT22;55941;50.800;4.342;2022-12-17T15:38:28;0.80;99.90
34833;DHT22;55941;50.800;4.342;2022-12-17T15:40:54;0.80;99.90
34833;DHT22;55941;50.800;4.342;2022-12-17T15:43:20;0.70;99.90
34833;DHT22;55941;50.800;4.342;2022-12-17T15:45:50;0.70;99.90
34833;DHT22;55941;50.800;4.342;2022-12-17T15:48:18;0.60;99.90
34833;DHT22;55941;50.800;4.342;2022-12-17T15:50:44;0.60;99.90
34833;DHT22;55941;50.800;4.342;2022-12-17T15:53:10;0.60;99.90
34833;DHT22;55941;50.800;4.342;2022-12-17T15:55:37;0.50;99.90
34833;DHT22;55941;50.800;4.342;2022-12-17T15:58:03;0.50;99.90
34833;DHT22;55941;50.800;4.342;2022-12-17T16:00:29;0.40;99.90
34833;DHT22;55941;50.800;4.342;2022-12-17T16:02:56;0.30;99.90
34833;DHT22;55941;50.800;4.342;2022-12-17T16:05:22;0.30;99.90
34833;DHT22;55941;50.800;4.342;2022-12-17T16:07:48;0.20;99.90
34833;DHT22;55941;50.800;4.342;2022-12-17T16:10:17;0.10;99.90
34833;DHT22;55941;50.800;4.342;2022-12-17T16:12:42;0.00;99.90
34833;DHT22;55941;50.800;4.342;2022-12-17T16:15:10;0.10;99.90
34833;DHT22;55941;50.800;4.342;2022-12-17T16:17:35;0.00;99.90
34833;DHT22;55941;50.800;4.342;2022-12-17T16:20:02;-0.10;99.90
34833;DHT22;55941;50.800;4.342;2022-12-17T16:22:28;-0.10;99.90
34833;DHT22;55941;50.800;4.342;2022-12-17T16:24:54;-0.10;99.90
34833;DHT22;55941;50.800;4.342;2022-12-17T16:27:20;-0.20;99.90
34833;DHT22;55941;50.800;4.342;2022-12-17T16:29:48;-0.20;99.90
34833;DHT22;55941;50.800;4.342;2022-12-17T16:32:15;-0.10;99.90
34833;DHT22;55941;50.800;4.342;2022-12-17T16:34:42;-0.10;99.90
34833;DHT22;55941;50.800;4.342;2022-12-17T16:37:07;-0.20;99.90
34833;DHT22;55941;50.800;4.342;2022-12-17T16:39:33;-0.20;99.90
34833;DHT22;55941;50.800;4.342;2022-12-17T16:41:59;-0.10;99.90
34833;DHT22;55941;50.800;4.342;2022-12-17T16:44:25;-0.10;99.90
34833;DHT22;55941;50.800;4.342;2022-12-17T16:46:51;-0.20;99.90
34833;DHT22;55941;50.800;4.342;2022-12-17T16:49:20;-0.20;99.90
34833;DHT22;55941;50.800;4.342;2022-12-17T16:51:48;-0.20;99.90
34833;DHT22;55941;50.800;4.342;2022-12-17T16:54:17;-0.30;99.90
34833;DHT22;55941;50.800;4.342;2022-12-17T16:56:44;-0.20;99.90
34833;DHT22;55941;50.800;4.342;2022-12-17T16:59:11;-0.40;99.90
34833;DHT22;55941;50.800;4.342;2022-12-17T17:01:39;-0.40;99.90
34833;DHT22;55941;50.800;4.342;2022-12-17T17:04:07;-0.50;99.90
34833;DHT22;55941;50.800;4.342;2022-12-17T17:06:40;-0.50;99.90
34833;DHT22;55941;50.800;4.342;2022-12-17T17:09:07;-0.60;99.90
34833;DHT22;55941;50.800;4.342;2022-12-17T17:11:33;-0.50;99.90
34833;DHT22;55941;50.800;4.342;2022-12-17T17:13:59;-0.60;99.90
34833;DHT22;55941;50.800;4.342;2022-12-17T17:16:25;-0.60;99.90
34833;DHT22;55941;50.800;4.342;2022-12-17T17:18:56;-0.60;99.90
34833;DHT22;55941;50.800;4.342;2022-12-17T17:24:05;-0.50;99.90
34833;DHT22;55941;50.800;4.342;2022-12-17T17:26:33;-0.40;99.90
34833;DHT22;55941;50.800;4.342;2022-12-17T17:29:00;-0.50;99.90
34833;DHT22;55941;50.800;4.342;2022-12-17T17:31:26;-0.50;99.90
34833;DHT22;55941;50.800;4.342;2022-12-17T17:33:52;-0.50;99.90
34833;DHT22;55941;50.800;4.342;2022-12-17T17:36:26;-0.50;99.90
34833;DHT22;55941;50.800;4.342;2022-12-17T17:38:55;-0.70;99.90
34833;DHT22;55941;50.800;4.342;2022-12-17T17:41:22;-0.60;99.90
34833;DHT22;55941;50.800;4.342;2022-12-17T17:43:56;-0.60;99.90
34833;DHT22;55941;50.800;4.342;2022-12-17T17:46:24;-0.60;99.90
34833;DHT22;55941;50.800;4.342;2022-12-17T17:48:50;-0.60;99.90
34833;DHT22;55941;50.800;4.342;2022-12-17T17:51:18;-0.60;99.90
34833;DHT22;55941;50.800;4.342;2022-12-17T17:53:49;-0.70;99.90
34833;DHT22;55941;50.800;4.342;2022-12-17T17:56:23;-0.60;99.90
34833;DHT22;55941;50.800;4.342;2022-12-17T17:59:04;-0.60;99.90
34833;DHT22;55941;50.800;4.342;2022-12-17T18:01:35;-0.50;99.90
34833;DHT22;55941;50.800;4.342;2022-12-17T18:04:02;-0.50;99.90
34833;DHT22;55941;50.800;4.342;2022-12-17T18:06:29;-0.50;99.90
34833;DHT22;55941;50.800;4.342;2022-12-17T18:08:57;-0.40;99.90
34833;DHT22;55941;50.800;4.342;2022-12-17T18:11:24;-0.50;99.90
34833;DHT22;55941;50.800;4.342;2022-12-17T18:13:50;-0.50;99.90
34833;DHT22;55941;50.800;4.342;2022-12-17T18:16:31;-0.60;99.90
34833;DHT22;55941;50.800;4.342;2022-12-17T18:19:05;-0.30;99.90
34833;DHT22;55941;50.800;4.342;2022-12-17T18:21:32;-0.20;99.90